<h2>Celebrating 3 years‏</h2><p>Thanks all !!!</p> <h2>EGCC -- Manchester</h2><p>newest destination to fly virtually 1 MAY</p>

Oman Air Virtual

About Us. About Our VA

Book Virtual Flights

Fly from Muscat to the World Virtually!

OMV News & Updates

OMV Newest Pilot

OMV Statistics

Total Fights Loged Today: 2
Total Visits Past Hour: 2
Total Pilots Registered: 139
Total Flights Flown: 3122
Total Aircrafts Active: 58
Total Flight Schedules: 268
Total Miles Flown: 3291681
Total Hours Clocked: 8406.54
Total Passengers: 1,603,756
Total CodeShare flight added: 32 Flights
VA average landing rate: -23
Virtual Airline Rank: 120

Flight Tracking

LIVE Flight Tracking and Route

Destinations

View Our Wide Virtual Network

Opreated by # No. Origin Destination Fleet / PIC
OMA5866 OMDB OOMS B777-300

PIC: Thamir AL-Mughairi
OMA5023 EHAM EGLL B737-81M

PIC: Ayman Alghafri
OMA647 OOMS OKBK 737-91M

PIC: Abdulaziz Alquodi
OMA373 OOMS VCBI B737-81M

PIC: Saeed Albalushi
OMA602 OMDB OOMS B737-81M

PIC: Salim ALKHANJRY
Opreated by # No. Origin Destination Landing Rate Status
OMA5244

View Report
LFPG EHAM -161 ft/min Normal landing Approval Pending
OMA5101

View Report
VCBI VRMM -171 ft/min Normal landing Approval Pending
OMA5867

View Report
OOMS OMDB -485 ft/min Dangerous Landing Approval Pending
OMA614

View Report
OMDB OOMS -294 ft/min Normal landing Approval Pending
OMA613

View Report
OOMS OMDB -118 ft/min Normal landing Approval Pending

Source: IVAO Metar and TAF Information.

Muscat International Airport (ICAO: OOMS)
METAR: OOMS 250550Z 22009KT 190V250 CAVOK 41/18 Q1006 NOSIG
TAF: OOMS 250500Z 2506/2612 22008KT 8000 NSC TEMPO 2507/2514 03014KT TEMPO 2523/2605 20018KT BECMG 2607/2609 01015KT

Salalah International Airport (ICAO: OOSA)
METAR: OOSA 250550Z 11006KT 050V140 9999 FEW025 33/24 Q1008 NOSIG
TAF: OOSA 250540Z 2506/2612 15010KT 9999 FEW025 BECMG 2515/2517 VRB03KT BECMG 2605/2607 16010KT

Oman Air Virtual is no way affiliated to the real Oman Air. How ever the brand logo, colors belongs to Oman Air and we use only for the Simulation Purpose for the virtual aviation enthousiast around the globe.

If you are looking for Oman Air website, we kindly request you to visit www.omanair.com

ATC Online IVAO
Pilots Online IVAO
OMV birthday
Member Online